Time;durP1;ratioP1;P1;durP2;ratioP2;P2;SDS_P1;SDS_P2;PMS_P1;PMS_P2;Temp;Humidity;BMP_temperature;BMP_pressure;BME280_temperature;BME280_humidity;BME280_pressure;Samples;Min_cycle;Max_cycle;Signal;HPM_P1;HPM_P2
2021/01/21 06:14:24;;;;;;;0.60;0.55;;;17.50;70.30;;;;;;5101475;27;20362;-41
2021/01/21 06:16:51;;;;;;;1.35;0.70;;;17.80;69.80;;;;;;5096025;28;20119;-42
2021/01/21 06:19:16;;;;;;;0.60;0.50;;;17.80;69.30;;;;;;5102074;28;20096;-44
2021/01/21 06:21:45;;;;;;;0.90;0.60;;;17.90;70.00;;;;;;5104307;28;20067;-40
2021/01/21 06:24:11;;;;;;;0.70;0.70;;;17.90;68.10;;;;;;5073292;28;20392;-41
2021/01/21 06:26:46;;;;;;;1.33;0.85;;;18.00;68.90;;;;;;5097635;28;20024;-46
2021/01/21 06:29:15;;;;;;;0.82;0.82;;;18.00;68.90;;;;;;5099254;28;20041;-44
2021/01/21 06:31:41;;;;;;;0.85;0.80;;;18.10;69.20;;;;;;5102018;28;20034;-43
2021/01/21 06:34:10;;;;;;;2.08;1.00;;;18.10;69.00;;;;;;5098121;28;20043;-44
2021/01/21 06:36:36;;;;;;;0.80;0.80;;;18.10;69.60;;;;;;5105009;28;20470;-42
2021/01/21 06:39:02;;;;;;;2.70;0.90;;;18.20;69.40;;;;;;5105701;28;20504;-39
2021/01/21 06:41:28;;;;;;;0.70;0.70;;;18.10;69.80;;;;;;5098147;28;20040;-44
2021/01/21 06:43:54;;;;;;;1.35;1.10;;;18.10;69.70;;;;;;5093509;28;20031;-44
2021/01/21 06:46:20;;;;;;;0.93;0.82;;;18.10;70.30;;;;;;5092027;28;20036;-42
2021/01/21 06:48:48;;;;;;;1.42;1.08;;;18.10;70.60;;;;;;5070616;28;20032;-44
2021/01/21 06:51:14;;;;;;;1.80;1.20;;;18.10;70.70;;;;;;5092136;28;20038;-44
2021/01/21 06:53:48;;;;;;;4.35;1.50;;;18.20;71.50;;;;;;5073681;28;20020;-44
2021/01/21 06:56:13;;;;;;;5.00;1.90;;;18.10;72.20;;;;;;5096089;28;20020;-43
2021/01/21 06:58:53;;;;;;;2.63;2.00;;;18.10;72.10;;;;;;5104102;28;20024;-42
2021/01/21 07:01:31;;;;;;;4.53;1.98;;;18.20;72.30;;;;;;5103250;28;20128;-42
2021/01/21 07:04:21;;;;;;;2.88;1.95;;;18.20;71.70;;;;;;5105884;28;20485;-42
2021/01/21 07:06:50;;;;;;;3.15;2.53;;;18.10;71.80;;;;;;5086555;28;20041;-45
2021/01/21 07:09:16;;;;;;;1.60;1.50;;;18.10;71.80;;;;;;5092770;28;20439;-43
2021/01/21 07:11:43;;;;;;;2.95;1.90;;;18.10;71.60;;;;;;5092006;28;20107;-40
2021/01/21 07:14:10;;;;;;;2.80;2.25;;;18.20;71.80;;;;;;5080873;28;20044;-43
2021/01/21 07:16:36;;;;;;;2.15;1.60;;;18.20;71.70;;;;;;5079279;28;20055;-45
2021/01/21 07:19:02;;;;;;;3.97;2.05;;;18.20;71.80;;;;;;5073487;28;20086;-43
2021/01/21 07:21:30;;;;;;;4.85;2.08;;;18.20;71.60;;;;;;5074888;28;20430;-47
2021/01/21 07:23:56;;;;;;;2.00;1.80;;;18.20;71.90;;;;;;5083583;28;20027;-44
2021/01/21 07:26:32;;;;;;;1.40;1.30;;;18.20;72.40;;;;;;5080102;28;20028;-37
2021/01/21 07:29:09;;;;;;;1.67;1.48;;;18.10;73.20;;;;;;5078381;28;20028;-44
2021/01/21 07:31:56;;;;;;;2.65;1.35;;;18.10;73.00;;;;;;5081109;28;20093;-44
2021/01/21 07:34:21;;;;;;;2.85;1.67;;;18.10;72.40;;;;;;5079305;28;20515;-40
2021/01/21 07:37:00;;;;;;;1.33;1.23;;;18.10;73.20;;;;;;5089313;28;20095;-44
2021/01/21 07:39:46;;;;;;;1.98;1.40;;;18.10;73.50;;;;;;5084631;28;20035;-41
2021/01/21 07:42:12;;;;;;;4.20;1.38;;;18.10;72.60;;;;;;5086585;28;20420;-44
2021/01/21 07:44:56;;;;;;;2.15;1.58;;;18.10;72.60;;;;;;5082071;28;20025;-43
2021/01/21 07:47:25;;;;;;;1.30;1.20;;;18.10;73.30;;;;;;5077376;28;20028;-42
2021/01/21 07:49:50;;;;;;;2.65;1.45;;;18.10;72.60;;;;;;5083850;28;20038;-42
2021/01/21 07:52:16;;;;;;;1.30;1.20;;;18.10;72.60;;;;;;5082576;28;20417;-43
2021/01/21 07:54:46;;;;;;;1.10;1.00;;;18.10;72.10;;;;;;5084860;28;20040;-42
2021/01/21 07:57:11;;;;;;;2.05;1.10;;;18.10;72.10;;;;;;5078930;28;20025;-45
2021/01/21 07:59:59;;;;;;;1.52;1.30;;;18.10;72.20;;;;;;5079509;28;20028;-42
2021/01/21 08:02:24;;;;;;;1.88;1.08;;;18.10;72.30;;;;;;5083385;28;20192;-42
2021/01/21 08:04:59;;;;;;;2.80;1.17;;;18.00;71.00;;;;;;5080197;28;20075;-43
2021/01/21 08:07:51;;;;;;;2.60;2.40;;;18.00;71.00;;;;;;5081073;28;20031;-42
2021/01/21 08:10:21;;;;;;;3.03;2.80;;;18.00;71.00;;;;;;5082492;28;20104;-44
2021/01/21 08:13:19;;;;;;;3.47;2.30;;;18.00;70.40;;;;;;5076016;28;20045;-44
2021/01/21 08:15:47;;;;;;;2.90;2.70;;;18.00;70.80;;;;;;5077925;28;20715;-43
2021/01/21 08:18:15;;;;;;;2.90;2.70;;;18.00;70.70;;;;;;5087265;28;20035;-44
2021/01/21 08:20:41;;;;;;;2.83;2.63;;;18.00;70.70;;;;;;5083346;28;20119;-44
2021/01/21 08:23:09;;;;;;;2.80;2.60;;;18.10;70.60;;;;;;5083472;28;20095;-44
2021/01/21 08:25:41;;;;;;;2.72;2.17;;;18.10;70.00;;;;;;5077215;28;20039;-43
2021/01/21 08:28:07;;;;;;;2.65;2.45;;;18.10;70.20;;;;;;5079765;28;20073;-43
2021/01/21 08:30:33;;;;;;;4.28;2.45;;;18.10;70.10;;;;;;5082871;28;20028;-43
2021/01/21 08:33:21;;;;;;;2.25;2.10;;;18.00;69.90;;;;;;5082179;28;20067;-43
2021/01/21 08:35:58;;;;;;;3.30;2.80;;;18.10;69.40;;;;;;5073592;28;20055;-45
2021/01/21 08:38:25;;;;;;;2.78;2.42;;;18.10;68.80;;;;;;5076938;28;20059;-47
2021/01/21 08:40:51;;;;;;;2.65;2.45;;;18.10;68.40;;;;;;5080418;28;20085;-45
2021/01/21 08:43:18;;;;;;;2.80;2.60;;;18.10;68.50;;;;;;5080758;28;20532;-43
2021/01/21 08:45:44;;;;;;;2.35;2.15;;;18.10;68.50;;;;;;5080298;28;20048;-45
2021/01/21 08:48:09;;;;;;;2.78;2.53;;;18.00;68.40;;;;;;5086324;28;20461;-45
2021/01/21 08:50:39;;;;;;;2.35;2.15;;;18.00;68.40;;;;;;5063931;28;20032;-45
2021/01/21 08:53:09;;;;;;;6.25;2.30;;;18.00;69.10;;;;;;5082837;28;20052;-46
2021/01/21 08:55:46;;;;;;;2.30;2.13;;;18.00;68.20;;;;;;5083939;28;20028;-45
2021/01/21 08:58:16;;;;;;;2.38;2.25;;;18.10;68.80;;;;;;5086614;28;20122;-45
2021/01/21 09:01:07;;;;;;;2.85;2.53;;;18.10;68.30;;;;;;5078170;28;20029;-47
2021/01/21 09:03:47;;;;;;;3.88;2.28;;;18.10;68.20;;;;;;5078171;28;20421;-45
2021/01/21 09:06:14;;;;;;;2.55;2.00;;;18.10;68.20;;;;;;5078825;28;20088;-46
2021/01/21 09:08:58;;;;;;;2.30;2.10;;;18.00;68.50;;;;;;5083457;28;20024;-46
2021/01/21 09:11:32;;;;;;;2.10;2.00;;;18.00;68.40;;;;;;5077526;28;20545;-46
2021/01/21 09:13:57;;;;;;;2.38;2.13;;;18.00;68.30;;;;;;5076763;28;20502;-48
2021/01/21 09:16:59;;;;;;;2.63;2.42;;;18.00;68.40;;;;;;5080633;28;20108;-46
2021/01/21 09:19:27;;;;;;;1.90;1.80;;;18.00;68.40;;;;;;5061041;28;20115;-46
2021/01/21 09:22:02;;;;;;;2.13;1.90;;;18.00;68.30;;;;;;5061613;28;20124;-47
2021/01/21 09:24:29;;;;;;;2.00;1.80;;;18.00;68.20;;;;;;5066308;28;20198;-46
2021/01/21 09:27:13;;;;;;;2.03;1.85;;;18.10;68.30;;;;;;5059221;28;20092;-55
2021/01/21 09:30:07;;;;;;;1.90;1.80;;;18.10;68.10;;;;;;5051454;28;20047;-43
2021/01/21 09:32:41;;;;;;;2.70;2.50;;;18.10;68.10;;;;;;5045607;28;20041;-45
2021/01/21 09:35:13;;;;;;;2.22;2.05;;;18.10;68.00;;;;;;5042602;28;20127;-45
2021/01/21 09:37:48;;;;;;;2.30;2.20;;;18.20;67.70;;;;;;5066509;28;20028;-49
2021/01/21 09:40:22;;;;;;;2.47;2.28;;;18.20;67.60;;;;;;5063221;28;20028;-46
2021/01/21 09:42:47;;;;;;;2.30;2.10;;;18.30;67.80;;;;;;5060308;28;20036;-47
2021/01/21 09:45:13;;;;;;;2.33;1.88;;;18.30;67.40;;;;;;5063116;28;20028;-47
2021/01/21 09:47:39;;;;;;;2.35;1.80;;;18.30;67.50;;;;;;5064780;28;20044;-46
2021/01/21 09:50:06;;;;;;;2.30;2.13;;;18.30;67.50;;;;;;5056273;28;20489;-45
2021/01/21 09:52:32;;;;;;;1.90;1.60;;;18.30;67.50;;;;;;5055777;28;20054;-44
2021/01/21 09:54:59;;;;;;;1.90;1.80;;;18.40;67.20;;;;;;5088004;28;20053;-43
2021/01/21 09:57:25;;;;;;;4.32;1.90;;;18.40;67.40;;;;;;5085173;28;20024;-44
2021/01/21 09:59:51;;;;;;;2.15;1.90;;;18.40;67.10;;;;;;5077149;28;20028;-44
2021/01/21 10:02:16;;;;;;;2.35;1.90;;;18.40;67.20;;;;;;5086203;28;20040;-44
2021/01/21 10:04:42;;;;;;;1.63;1.52;;;18.50;67.30;;;;;;5081724;28;20029;-44
2021/01/21 10:07:08;;;;;;;1.67;1.58;;;18.50;67.50;;;;;;5077020;28;20072;-45
2021/01/21 10:09:34;;;;;;;2.10;1.67;;;18.50;67.60;;;;;;5080552;28;20085;-42
2021/01/21 10:12:00;;;;;;;1.70;1.60;;;18.50;67.30;;;;;;5083426;28;20031;-45
2021/01/21 10:14:26;;;;;;;1.83;1.70;;;18.60;67.30;;;;;;5080239;28;20363;-44
2021/01/21 10:16:51;;;;;;;1.88;1.63;;;18.60;67.20;;;;;;5075723;28;20028;-45
2021/01/21 10:19:17;;;;;;;1.50;1.40;;;18.60;67.50;;;;;;5085731;28;20017;-45
2021/01/21 10:21:43;;;;;;;1.50;1.40;;;18.60;67.30;;;;;;5085179;28;20097;-43
2021/01/21 10:24:08;;;;;;;1.60;1.50;;;18.60;67.40;;;;;;5082919;28;20103;-44
2021/01/21 10:26:34;;;;;;;1.60;1.50;;;18.60;67.50;;;;;;5078416;28;20093;-45
2021/01/21 10:28:59;;;;;;;1.60;1.50;;;18.70;67.30;;;;;;5084359;28;20027;-46
2021/01/21 10:31:25;;;;;;;1.60;1.50;;;18.70;67.10;;;;;;5081065;28;20514;-45
2021/01/21 10:33:51;;;;;;;1.65;1.40;;;18.70;67.40;;;;;;5081598;28;20017;-45
2021/01/21 10:36:16;;;;;;;2.60;2.40;;;18.70;67.10;;;;;;5081286;28;20028;-45
2021/01/21 10:38:42;;;;;;;6.50;2.53;;;18.70;67.00;;;;;;5083310;28;20732;-45
2021/01/21 10:41:08;;;;;;;1.98;1.80;;;18.70;68.00;;;;;;5078892;28;20060;-45
2021/01/21 10:43:34;;;;;;;2.20;2.00;;;18.70;67.30;;;;;;5082260;28;20059;-45
2021/01/21 10:45:59;;;;;;;2.10;2.00;;;18.70;67.20;;;;;;5074859;28;20027;-43
2021/01/21 10:48:25;;;;;;;1.98;1.80;;;18.70;67.30;;;;;;5089332;28;20024;-40
2021/01/21 10:50:50;;;;;;;1.83;1.73;;;18.70;67.20;;;;;;5089899;28;20046;-43
2021/01/21 10:53:16;;;;;;;1.80;1.70;;;18.80;66.90;;;;;;5086172;28;20064;-43
2021/01/21 10:55:42;;;;;;;1.63;1.52;;;18.80;66.70;;;;;;5089355;28;20032;-44
2021/01/21 10:58:07;;;;;;;2.35;2.08;;;18.80;66.70;;;;;;5089013;28;20028;-43
2021/01/21 11:00:33;;;;;;;2.35;2.25;;;18.90;66.40;;;;;;5077588;28;20029;-44
2021/01/21 11:02:59;;;;;;;2.58;2.28;;;19.00;66.30;;;;;;5081733;28;20031;-44
2021/01/21 11:05:25;;;;;;;2.00;1.90;;;19.00;66.00;;;;;;5083431;28;20021;-44
2021/01/21 11:07:50;;;;;;;2.10;2.00;;;19.00;66.30;;;;;;5081510;28;20078;-42
2021/01/21 11:10:16;;;;;;;1.90;1.80;;;18.90;66.30;;;;;;5083893;28;20022;-43
2021/01/21 11:12:42;;;;;;;1.50;1.40;;;18.90;66.20;;;;;;5088666;28;20102;-43
2021/01/21 11:15:08;;;;;;;1.85;1.75;;;18.90;66.20;;;;;;5086674;28;20052;-43
2021/01/21 11:17:33;;;;;;;1.60;1.50;;;18.90;66.10;;;;;;5080348;28;20158;-42
2021/01/21 11:19:59;;;;;;;1.85;1.42;;;18.90;66.00;;;;;;5089552;28;20501;-45
2021/01/21 11:22:24;;;;;;;2.03;1.58;;;18.90;66.00;;;;;;5081102;28;20043;-47
2021/01/21 11:24:50;;;;;;;1.65;1.55;;;18.90;66.10;;;;;;5075810;28;20086;-43
2021/01/21 11:27:16;;;;;;;1.70;1.55;;;18.80;66.90;;;;;;4733680;28;10000165;-46
2021/01/21 11:29:42;;;;;;;1.67;1.58;;;18.80;66.70;;;;;;5081041;28;20036;-47
2021/01/21 11:32:08;;;;;;;1.90;1.77;;;18.90;66.40;;;;;;5085138;28;20724;-46
2021/01/21 11:34:33;;;;;;;2.20;2.00;;;18.90;66.30;;;;;;5086148;28;20646;-46
2021/01/21 11:36:59;;;;;;;1.80;1.70;;;18.90;66.10;;;;;;5089233;28;20099;-46
2021/01/21 11:39:24;;;;;;;1.90;1.80;;;19.00;66.40;;;;;;5089122;28;20048;-46
2021/01/21 11:41:50;;;;;;;1.65;1.55;;;18.90;66.60;;;;;;5080210;28;20040;-47
2021/01/21 11:44:15;;;;;;;2.30;1.83;;;18.90;66.70;;;;;;5084041;28;20021;-46
2021/01/21 11:46:41;;;;;;;4.95;2.05;;;18.90;66.80;;;;;;5081759;28;20036;-47
2021/01/21 11:49:07;;;;;;;1.70;1.60;;;18.80;66.80;;;;;;5085942;28;20020;-45
2021/01/21 11:51:32;;;;;;;1.67;1.50;;;18.80;66.80;;;;;;5085025;28;20036;-46
2021/01/21 11:53:58;;;;;;;1.70;1.60;;;18.80;66.70;;;;;;5076217;28;20087;-48
2021/01/21 11:56:23;;;;;;;1.80;1.38;;;18.80;67.00;;;;;;5080380;28;20041;-47
2021/01/21 11:58:49;;;;;;;1.55;1.45;;;18.80;66.90;;;;;;5073816;28;20084;-45
2021/01/21 12:01:15;;;;;;;1.95;1.85;;;18.80;66.90;;;;;;5086553;28;20041;-44
2021/01/21 12:03:40;;;;;;;1.55;1.45;;;18.80;66.90;;;;;;5082666;28;20040;-43
2021/01/21 12:06:06;;;;;;;1.67;1.58;;;18.80;66.90;;;;;;5083207;28;20143;-44
2021/01/21 12:08:31;;;;;;;1.70;1.60;;;18.80;66.90;;;;;;5083129;28;20024;-45
2021/01/21 12:10:57;;;;;;;3.28;1.70;;;18.80;66.90;;;;;;5083064;28;20556;-42
2021/01/21 12:13:22;;;;;;;2.72;2.13;;;18.80;66.70;;;;;;5081140;28;20040;-43
2021/01/21 12:15:48;;;;;;;2.05;1.85;;;18.80;66.70;;;;;;5081031;28;20103;-41
2021/01/21 12:18:14;;;;;;;1.67;1.58;;;18.80;67.10;;;;;;5073936;28;20020;-39
2021/01/21 12:20:40;;;;;;;1.50;1.40;;;18.80;66.80;;;;;;5075364;28;20094;-40
2021/01/21 12:23:05;;;;;;;1.50;1.40;;;18.90;66.80;;;;;;5078145;28;20027;-45
2021/01/21 12:25:31;;;;;;;2.80;1.45;;;18.90;66.80;;;;;;5080703;28;20035;-42
2021/01/21 12:27:57;;;;;;;1.55;1.45;;;18.80;67.00;;;;;;5085512;28;20040;-41
2021/01/21 12:30:23;;;;;;;1.42;1.27;;;18.90;66.70;;;;;;5083373;28;20016;-39
2021/01/21 12:32:48;;;;;;;1.38;1.27;;;18.90;66.70;;;;;;5078512;28;20086;-44
2021/01/21 12:35:14;;;;;;;1.70;1.60;;;18.90;66.60;;;;;;5077140;28;20505;-43
2021/01/21 12:37:40;;;;;;;1.58;1.40;;;18.90;66.50;;;;;;5088001;28;20028;-38
2021/01/21 12:40:06;;;;;;;3.45;1.67;;;18.90;66.30;;;;;;5084738;28;20031;-45
2021/01/21 12:42:32;;;;;;;1.38;1.27;;;18.90;66.90;;;;;;5086720;28;20028;-44
2021/01/21 12:44:57;;;;;;;1.48;1.38;;;18.90;66.50;;;;;;5079707;28;20024;-45
2021/01/21 12:47:23;;;;;;;1.52;1.42;;;18.90;66.40;;;;;;5075522;28;20477;-45
2021/01/21 12:49:49;;;;;;;1.63;1.52;;;18.90;66.30;;;;;;5082173;28;20394;-46
2021/01/21 12:52:15;;;;;;;1.30;1.20;;;18.90;66.40;;;;;;5080651;28;20028;-43
2021/01/21 12:54:42;;;;;;;1.23;1.13;;;18.90;66.50;;;;;;5090455;28;20024;-42
2021/01/21 12:57:07;;;;;;;2.55;1.20;;;18.90;66.30;;;;;;5077583;28;20071;-44
2021/01/21 12:59:33;;;;;;;1.02;0.93;;;18.90;66.20;;;;;;5079478;28;20024;-43
2021/01/21 13:01:58;;;;;;;1.20;1.10;;;18.90;66.30;;;;;;5077349;28;20417;-43
2021/01/21 13:04:24;;;;;;;1.00;0.90;;;19.00;66.30;;;;;;5073104;28;20024;-40
2021/01/21 13:06:50;;;;;;;1.20;1.10;;;18.90;66.40;;;;;;5088345;28;20480;-43
2021/01/21 13:09:15;;;;;;;0.90;0.90;;;18.90;66.30;;;;;;5082007;28;20073;-46
2021/01/21 13:11:41;;;;;;;1.17;1.00;;;18.90;66.40;;;;;;5082839;28;20040;-46
2021/01/21 13:14:06;;;;;;;1.20;1.10;;;18.90;66.60;;;;;;5083823;28;20043;-46
2021/01/21 13:16:32;;;;;;;1.33;1.23;;;18.90;66.50;;;;;;5085319;28;20031;-42
2021/01/21 13:18:58;;;;;;;1.20;1.10;;;18.90;67.20;;;;;;5077156;28;20025;-48
2021/01/21 13:21:23;;;;;;;1.05;1.00;;;18.90;66.40;;;;;;5076227;28;20086;-47
2021/01/21 13:23:53;;;;;;;1.10;1.00;;;18.90;66.60;;;;;;5076130;28;20020;-48
2021/01/21 13:26:19;;;;;;;1.27;0.93;;;18.80;66.70;;;;;;5088683;28;20069;-48
2021/01/21 13:28:45;;;;;;;0.90;0.90;;;18.90;66.80;;;;;;5085532;28;20032;-46
2021/01/21 13:31:10;;;;;;;0.93;0.93;;;18.90;66.40;;;;;;5088495;28;20020;-47
2021/01/21 13:33:36;;;;;;;0.90;0.90;;;18.80;66.40;;;;;;5090417;28;20121;-40
2021/01/21 13:36:01;;;;;;;1.55;0.80;;;18.80;66.40;;;;;;5075843;28;20032;-46
2021/01/21 13:38:31;;;;;;;0.90;0.90;;;18.80;66.30;;;;;;5076479;28;20066;-46
2021/01/21 13:40:57;;;;;;;1.10;1.00;;;18.80;66.50;;;;;;5088308;28;20507;-46
2021/01/21 13:43:22;;;;;;;0.85;0.82;;;18.80;66.30;;;;;;5085591;28;20066;-47
2021/01/21 13:45:48;;;;;;;0.90;0.90;;;18.80;66.50;;;;;;5087805;28;20023;-46
2021/01/21 13:48:13;;;;;;;0.93;0.90;;;18.80;66.60;;;;;;5076065;28;20090;-48
2021/01/21 13:50:39;;;;;;;1.00;1.00;;;18.80;66.70;;;;;;5084724;28;20117;-47
2021/01/21 13:53:05;;;;;;;0.90;0.90;;;18.80;66.80;;;;;;5078800;28;20039;-45
2021/01/21 13:55:30;;;;;;;0.90;0.90;;;18.80;66.70;;;;;;5075190;28;20093;-48
2021/01/21 13:57:56;;;;;;;1.25;1.00;;;18.80;66.90;;;;;;5077766;28;20028;-45
2021/01/21 14:00:22;;;;;;;0.95;0.80;;;18.80;66.80;;;;;;5076067;28;20547;-46
2021/01/21 14:02:47;;;;;;;1.05;0.80;;;18.80;66.70;;;;;;5084029;28;20035;-44
2021/01/21 14:05:13;;;;;;;1.00;0.90;;;18.80;66.80;;;;;;5082449;28;20020;-41
2021/01/21 14:07:38;;;;;;;1.52;1.13;;;18.80;67.10;;;;;;5076129;28;20031;-44
2021/01/21 14:10:05;;;;;;;1.38;0.90;;;18.90;67.40;;;;;;5074507;28;20051;-44
2021/01/21 14:12:31;;;;;;;1.88;0.90;;;18.80;67.50;;;;;;5086605;28;20075;-46
2021/01/21 14:14:57;;;;;;;1.17;1.00;;;18.80;67.20;;;;;;5083799;28;20024;-44
2021/01/21 14:17:22;;;;;;;1.10;1.00;;;18.80;67.30;;;;;;5084977;28;20024;-44
2021/01/21 14:19:48;;;;;;;1.48;1.00;;;18.70;67.30;;;;;;5086447;28;20370;-45
2021/01/21 14:22:14;;;;;;;5.10;1.00;;;18.70;67.70;;;;;;5087402;28;20043;-44
2021/01/21 14:24:39;;;;;;;1.40;1.08;;;18.70;68.90;;;;;;5091727;28;20081;-44
2021/01/21 14:27:05;;;;;;;3.20;1.08;;;18.70;68.60;;;;;;5080339;28;20075;-46
2021/01/21 14:29:31;;;;;;;3.95;1.30;;;18.70;68.70;;;;;;5079958;28;20025;-46
2021/01/21 14:31:56;;;;;;;2.53;1.10;;;18.70;68.50;;;;;;5079537;28;20036;-44
2021/01/21 14:34:22;;;;;;;1.70;1.27;;;18.70;68.40;;;;;;5078025;28;20020;-44
2021/01/21 14:36:47;;;;;;;1.30;1.10;;;18.70;68.50;;;;;;5077723;28;20060;-44
2021/01/21 14:39:13;;;;;;;1.35;1.25;;;18.60;68.40;;;;;;5079779;28;20033;-44
2021/01/21 14:41:38;;;;;;;2.67;1.13;;;18.60;68.40;;;;;;5079524;28;20036;-43
2021/01/21 14:44:04;;;;;;;1.30;1.20;;;18.60;68.50;;;;;;5083097;28;20032;-43
2021/01/21 14:46:30;;;;;;;1.80;1.33;;;18.50;68.50;;;;;;5078502;28;20382;-44
2021/01/21 14:48:55;;;;;;;2.05;1.33;;;18.50;68.40;;;;;;5076518;28;20033;-44
2021/01/21 14:51:21;;;;;;;10.63;1.52;;;18.50;68.50;;;;;;5079697;28;20047;-44
2021/01/21 14:53:47;;;;;;;1.35;1.25;;;18.50;68.40;;;;;;5079625;28;20025;-43
2021/01/21 14:56:12;;;;;;;1.88;1.30;;;18.50;68.30;;;;;;5080893;28;20484;-44
2021/01/21 14:58:38;;;;;;;1.40;1.20;;;18.60;68.40;;;;;;5083752;28;20481;-45
2021/01/21 15:01:03;;;;;;;1.38;0.95;;;18.50;68.20;;;;;;5082838;28;20032;-43
2021/01/21 15:03:29;;;;;;;1.17;1.08;;;18.50;68.20;;;;;;5083659;28;20507;-43
2021/01/21 15:05:55;;;;;;;1.10;1.00;;;18.50;68.30;;;;;;5087467;28;20127;-45
2021/01/21 15:08:21;;;;;;;1.40;1.20;;;18.40;68.30;;;;;;5086065;28;20021;-43
2021/01/21 15:10:47;;;;;;;1.48;1.15;;;18.40;68.30;;;;;;5086838;28;20039;-43
2021/01/21 15:13:12;;;;;;;1.67;0.90;;;18.40;68.30;;;;;;5085540;28;20527;-44
2021/01/21 15:15:38;;;;;;;3.25;1.10;;;18.40;68.40;;;;;;5088178;28;20028;-43
2021/01/21 15:18:04;;;;;;;1.15;0.88;;;18.40;68.30;;;;;;5085111;28;20562;-44
2021/01/21 15:20:30;;;;;;;1.40;1.20;;;18.50;68.50;;;;;;5090018;28;20024;-45
2021/01/21 15:22:55;;;;;;;1.20;1.10;;;18.50;68.20;;;;;;5085070;28;20037;-45
2021/01/21 15:25:23;;;;;;;2.35;1.00;;;18.50;68.20;;;;;;5088279;28;20078;-43
2021/01/21 15:27:48;;;;;;;1.33;1.13;;;18.50;68.30;;;;;;5083461;28;20025;-46
2021/01/21 15:30:15;;;;;;;1.73;1.10;;;18.40;68.30;;;;;;5081639;28;20073;-46
2021/01/21 15:32:40;;;;;;;4.30;1.40;;;18.40;68.30;;;;;;5084694;28;20381;-45
2021/01/21 15:35:06;;;;;;;1.27;1.05;;;18.50;68.20;;;;;;5084233;28;20031;-46
2021/01/21 15:37:33;;;;;;;1.27;1.10;;;18.50;68.10;;;;;;5087478;28;20112;-47
2021/01/21 15:39:58;;;;;;;1.10;1.00;;;18.50;68.20;;;;;;5080514;28;20505;-47
2021/01/21 15:42:24;;;;;;;1.65;0.90;;;18.50;68.20;;;;;;5084803;28;20042;-45
2021/01/21 15:44:49;;;;;;;2.33;1.90;;;18.50;67.90;;;;;;5080860;28;20516;-46
2021/01/21 15:47:15;;;;;;;6.68;3.40;;;18.50;67.60;;;;;;5082169;28;20059;-47
2021/01/21 15:49:41;;;;;;;7.50;4.25;;;18.60;67.30;;;;;;5084179;28;20509;-43
2021/01/21 15:52:07;;;;;;;10.30;5.45;;;18.60;67.10;;;;;;5088185;28;20382;-46
2021/01/21 15:54:33;;;;;;;12.90;5.47;;;18.60;67.10;;;;;;5090293;28;20057;-46
2021/01/21 15:56:58;;;;;;;12.70;7.03;;;18.60;67.30;;;;;;5080096;28;20047;-44
2021/01/21 15:59:24;;;;;;;12.95;8.13;;;18.60;67.20;;;;;;5088932;28;20405;-46
2021/01/21 16:01:50;;;;;;;13.68;7.88;;;18.70;67.30;;;;;;5086460;28;20040;-47
2021/01/21 16:04:16;;;;;;;18.67;9.40;;;18.60;67.00;;;;;;5075058;28;20486;-45
2021/01/21 16:06:42;;;;;;;19.08;9.30;;;18.70;67.30;;;;;;5082172;28;20028;-47
2021/01/21 16:09:08;;;;;;;19.05;9.93;;;18.70;67.10;;;;;;5087983;28;20374;-43
2021/01/21 16:11:33;;;;;;;18.55;9.80;;;18.60;66.90;;;;;;5081296;28;20398;-43
2021/01/21 16:14:00;;;;;;;15.68;8.40;;;18.60;67.30;;;;;;5075867;28;20060;-43
2021/01/21 16:16:26;;;;;;;13.43;8.20;;;18.60;66.80;;;;;;5082847;28;20082;-44
2021/01/21 16:18:52;;;;;;;14.63;7.88;;;18.60;66.90;;;;;;5084328;28;20020;-43
2021/01/21 16:21:17;;;;;;;14.52;7.65;;;18.60;66.50;;;;;;5086134;28;20078;-44
2021/01/21 16:23:43;;;;;;;14.75;7.68;;;18.50;66.50;;;;;;5079926;28;20021;-44
2021/01/21 16:26:12;;;;;;;15.27;8.07;;;18.50;67.50;;;;;;5083818;28;20024;-43
2021/01/21 16:28:40;;;;;;;13.93;8.07;;;18.60;67.80;;;;;;5079885;28;20062;-45
2021/01/21 16:31:09;;;;;;;16.02;8.13;;;18.60;67.50;;;;;;5083790;28;20028;-43
2021/01/21 16:33:35;;;;;;;13.32;8.25;;;18.60;67.80;;;;;;5083956;28;20035;-35
2021/01/21 16:36:01;;;;;;;16.45;8.45;;;18.60;67.60;;;;;;5083983;28;20028;-42
2021/01/21 16:38:26;;;;;;;15.45;7.55;;;18.60;67.50;;;;;;5075777;28;20398;-44
2021/01/21 16:40:52;;;;;;;14.80;7.40;;;18.60;67.70;;;;;;5082946;28;20032;-49
2021/01/21 16:43:18;;;;;;;16.83;7.60;;;18.60;67.50;;;;;;5083597;28;20036;-44
2021/01/21 16:45:44;;;;;;;13.40;7.65;;;18.60;67.60;;;;;;5084088;28;20051;-40
2021/01/21 16:48:10;;;;;;;12.65;7.93;;;18.60;67.50;;;;;;5083479;28;20075;-43
2021/01/21 16:50:35;;;;;;;12.82;7.32;;;18.50;67.60;;;;;;5084095;28;20055;-44
2021/01/21 16:53:01;;;;;;;13.80;6.97;;;18.50;67.70;;;;;;5081027;28;20065;-46
2021/01/21 16:55:26;;;;;;;12.25;6.88;;;18.60;67.80;;;;;;5083893;28;20021;-43
2021/01/21 16:57:52;;;;;;;14.93;7.43;;;18.60;67.50;;;;;;5082493;28;20043;-43
2021/01/21 17:00:18;;;;;;;11.88;7.55;;;18.60;67.60;;;;;;5082986;28;20016;-43
2021/01/21 17:02:43;;;;;;;13.80;7.68;;;18.60;67.30;;;;;;5078221;28;20048;-45
2021/01/21 17:05:10;;;;;;;10.77;7.07;;;18.60;67.80;;;;;;5078858;28;20116;-43
2021/01/21 17:07:35;;;;;;;10.70;6.75;;;18.60;67.60;;;;;;5079573;28;20562;-43
2021/01/21 17:10:01;;;;;;;13.80;7.43;;;18.50;67.30;;;;;;5079560;28;20013;-46
2021/01/21 17:12:26;;;;;;;8.52;6.50;;;18.60;67.50;;;;;;5088486;28;20055;-43
2021/01/21 17:14:52;;;;;;;12.13;6.63;;;18.60;67.10;;;;;;5084282;28;20024;-46
2021/01/21 17:17:17;;;;;;;10.70;6.20;;;18.60;67.20;;;;;;5078882;28;20024;-43
2021/01/21 17:19:44;;;;;;;10.35;5.93;;;18.60;66.90;;;;;;5081469;28;20024;-43
2021/01/21 17:22:10;;;;;;;10.55;6.25;;;18.50;67.10;;;;;;5080253;28;20043;-44
2021/01/21 17:24:35;;;;;;;10.13;6.20;;;18.50;67.10;;;;;;5089334;28;20024;-45
2021/01/21 17:27:02;;;;;;;14.50;6.25;;;18.50;67.50;;;;;;5085945;28;20032;-46
2021/01/21 17:29:27;;;;;;;11.48;6.25;;;18.50;67.50;;;;;;5082911;28;20507;-44
2021/01/21 17:31:53;;;;;;;8.80;5.78;;;18.50;67.50;;;;;;5080595;28;20028;-44
2021/01/21 17:34:19;;;;;;;16.63;6.10;;;18.50;67.50;;;;;;5079871;28;20019;-46
2021/01/21 17:36:45;;;;;;;10.00;5.63;;;18.50;67.80;;;;;;5077913;28;20037;-48
2021/01/21 17:39:10;;;;;;;13.15;7.57;;;18.50;67.90;;;;;;4725692;28;10000281;-48
2021/01/21 17:41:36;;;;;;;15.18;8.60;;;18.50;67.90;;;;;;5072785;28;20041;-46
2021/01/21 17:44:02;;;;;;;13.75;8.90;;;18.50;67.80;;;;;;5074072;28;20446;-42
2021/01/21 17:46:28;;;;;;;18.52;9.70;;;18.50;67.80;;;;;;5071961;28;20028;-44
2021/01/21 17:48:53;;;;;;;15.57;9.05;;;18.50;67.80;;;;;;5069757;28;20100;-46
2021/01/21 17:51:19;;;;;;;15.00;9.38;;;18.50;67.70;;;;;;5075916;28;20035;-45
2021/01/21 17:53:44;;;;;;;13.00;9.07;;;18.50;67.60;;;;;;5072581;28;20036;-43
2021/01/21 17:56:10;;;;;;;17.60;9.70;;;18.50;67.50;;;;;;5071782;28;20033;-46
2021/01/21 17:58:36;;;;;;;14.93;9.75;;;18.50;67.60;;;;;;5073283;28;20127;-48
2021/01/21 18:01:01;;;;;;;13.50;8.80;;;18.50;67.50;;;;;;5074938;28;20439;-45
2021/01/21 18:03:27;;;;;;;14.73;9.55;;;18.50;67.40;;;;;;5086916;28;20040;-44
2021/01/21 18:05:52;;;;;;;15.32;9.57;;;18.50;67.40;;;;;;5081955;28;20032;-46
2021/01/21 18:08:18;;;;;;;17.38;10.02;;;18.40;67.30;;;;;;5081488;28;20031;-49
2021/01/21 18:10:44;;;;;;;15.52;10.02;;;18.50;67.40;;;;;;5081256;28;20051;-45
2021/01/21 18:13:10;;;;;;;17.00;10.57;;;18.40;67.40;;;;;;5082139;28;20448;-41
2021/01/21 18:15:36;;;;;;;16.05;9.63;;;18.40;67.60;;;;;;5082723;28;20035;-44
2021/01/21 18:18:03;;;;;;;14.65;9.52;;;18.40;67.40;;;;;;5083220;28;20032;-46
2021/01/21 18:20:28;;;;;;;14.95;10.00;;;18.40;67.30;;;;;;5081903;28;20063;-43
2021/01/21 18:22:54;;;;;;;13.80;9.18;;;18.40;67.40;;;;;;5081510;28;20544;-45
2021/01/21 18:25:20;;;;;;;14.20;9.18;;;18.40;67.50;;;;;;5082092;28;20035;-47
2021/01/21 18:27:46;;;;;;;15.02;9.32;;;18.40;67.60;;;;;;5080116;28;20101;-49
2021/01/21 18:30:12;;;;;;;15.03;9.20;;;18.40;67.70;;;;;;4729315;28;10001401;-47
2021/01/21 18:32:39;;;;;;;13.40;8.55;;;18.40;68.00;;;;;;5080058;28;20032;-45
2021/01/21 18:35:05;;;;;;;16.02;8.75;;;18.40;68.10;;;;;;5075898;28;20115;-36
2021/01/21 18:37:34;;;;;;;12.13;8.10;;;18.50;68.90;;;;;;5079858;28;20036;-48
2021/01/21 18:40:04;;;;;;;14.63;8.73;;;18.50;68.10;;;;;;5080148;28;20057;-45
2021/01/21 18:42:30;;;;;;;9.73;7.13;;;18.50;68.20;;;;;;5084969;28;20048;-47
2021/01/21 18:44:55;;;;;;;8.07;6.65;;;18.50;67.90;;;;;;5075094;28;20062;-46
2021/01/21 18:47:21;;;;;;;10.88;7.30;;;18.60;67.80;;;;;;5074230;28;20051;-43
2021/01/21 18:49:46;;;;;;;11.82;7.45;;;18.60;67.70;;;;;;5079077;28;20569;-45
2021/01/21 18:52:12;;;;;;;10.90;7.38;;;18.60;67.80;;;;;;5081664;28;20028;-44
2021/01/21 18:54:37;;;;;;;9.52;5.85;;;18.60;67.80;;;;;;5084367;28;20036;-50
2021/01/21 18:57:04;;;;;;;7.40;5.22;;;18.70;67.30;;;;;;5080480;28;20032;-45